createdAt,value
2017-02-17T00:00:02.765Z,1025.68
2017-02-17T00:05:03.077Z,1025.69
2017-02-17T00:10:03.004Z,1025.62
2017-02-17T00:15:02.979Z,1025.53
2017-02-17T00:20:03.053Z,1025.6
2017-02-17T00:25:03.044Z,1025.51
2017-02-17T00:30:02.935Z,1025.4
2017-02-17T00:35:02.787Z,1025.37
2017-02-17T00:40:03.118Z,1025.31
2017-02-17T00:45:02.896Z,1025.31
2017-02-17T00:50:02.774Z,1025.15
2017-02-17T00:55:03.496Z,1025.2
2017-02-17T01:00:03.196Z,1025.19
2017-02-17T01:05:03.443Z,1025.16
2017-02-17T01:10:03.547Z,1025.16
2017-02-17T01:15:03.409Z,1025.12
2017-02-17T01:20:03.334Z,1025.12
2017-02-17T01:25:03.181Z,1025.12
2017-02-17T01:30:02.972Z,1025.12
2017-02-17T01:35:03.676Z,1025.11
2017-02-17T01:40:02.833Z,1025.08
2017-02-17T01:45:02.797Z,1025.13
2017-02-17T01:50:03.109Z,1025.08
2017-02-17T01:55:03.026Z,1024.92
2017-02-17T02:00:02.894Z,1025.05
2017-02-17T02:05:03.591Z,1025.01
2017-02-17T02:10:03.507Z,1024.98
2017-02-17T02:15:03.334Z,1024.85
2017-02-17T02:20:03.347Z,1024.8
2017-02-17T02:25:03.416Z,1024.81
2017-02-17T02:30:03.533Z,1024.73
2017-02-17T02:35:06.526Z,1024.64
2017-02-17T02:40:03.412Z,1024.59
2017-02-17T02:45:03.402Z,1024.58
2017-02-17T02:50:03.309Z,1024.46
2017-02-17T02:55:03.365Z,1024.5
2017-02-17T03:00:03.126Z,1024.47
2017-02-17T03:05:02.767Z,1024.44
2017-02-17T03:10:03.573Z,1024.43
2017-02-17T03:15:03.610Z,1024.41
2017-02-17T03:20:03.378Z,1024.36
2017-02-17T03:25:03.313Z,1024.3
2017-02-17T03:30:03.121Z,1024.28
2017-02-17T03:35:02.910Z,1024.29
2017-02-17T03:40:03.622Z,1024.26
2017-02-17T03:45:03.508Z,1024.25
2017-02-17T03:50:02.699Z,1024.23
2017-02-17T03:55:03.566Z,1024.24
2017-02-17T04:00:03.330Z,1024.18
2017-02-17T04:05:03.175Z,1024.12
2017-02-17T04:10:03.249Z,1024.14
2017-02-17T04:15:03.117Z,1024.05
2017-02-17T04:20:03.160Z,1023.99
2017-02-17T04:25:03.082Z,1023.92
2017-02-17T04:30:03.181Z,1023.87
2017-02-17T04:35:03.119Z,1023.85
2017-02-17T04:40:03.022Z,1023.74
2017-02-17T04:45:02.998Z,1023.81
2017-02-17T04:50:03.005Z,1023.76
2017-02-17T04:55:02.862Z,1023.68
2017-02-17T05:00:03.029Z,1023.71
2017-02-17T05:05:02.923Z,1023.67
2017-02-17T05:10:03.202Z,1023.61
2017-02-17T05:15:03.292Z,1023.63
2017-02-17T05:20:03.291Z,1023.63
2017-02-17T05:25:03.074Z,1023.6
2017-02-17T05:30:02.932Z,1023.55
2017-02-17T05:35:02.721Z,1023.5
2017-02-17T05:40:03.504Z,1023.51
2017-02-17T05:55:03.457Z,1023.55
2017-02-17T06:00:03.360Z,1023.48
2017-02-17T06:05:03.113Z,1023.5
2017-02-17T06:10:02.821Z,1023.54
2017-02-17T06:15:02.945Z,1023.57
2017-02-17T06:20:02.743Z,1023.58
2017-02-17T06:25:03.575Z,1023.53
2017-02-17T06:30:03.426Z,1023.44
2017-02-17T06:35:03.204Z,1023.53
2017-02-17T06:40:03.219Z,1023.5
2017-02-17T06:45:03.339Z,1023.57
2017-02-17T06:50:03.395Z,1023.57
2017-02-17T06:55:03.429Z,1023.54
2017-02-17T07:00:03.505Z,1023.55
2017-02-17T07:05:03.565Z,1023.52
2017-02-17T07:10:02.715Z,1023.58
2017-02-17T07:15:02.785Z,1023.61
2017-02-17T07:20:02.896Z,1023.65
2017-02-17T07:25:03.048Z,1023.65
2017-02-17T07:30:03.303Z,1023.69
2017-02-17T07:35:03.276Z,1023.65
2017-02-17T07:40:03.328Z,1023.62
2017-02-17T07:45:03.313Z,1023.64
2017-02-17T07:50:03.357Z,1023.59
2017-02-17T07:55:03.505Z,1023.53
2017-02-17T08:00:03.459Z,1023.64
2017-02-17T08:05:03.554Z,1023.59
2017-02-17T08:10:03.461Z,1023.66
2017-02-17T08:15:03.200Z,1023.65
2017-02-17T08:20:02.981Z,1023.73
2017-02-17T08:25:03.079Z,1023.64
2017-02-17T08:30:02.938Z,1023.6
2017-02-17T08:35:02.783Z,1023.76
2017-02-17T08:40:02.809Z,1023.76
2017-02-17T08:45:02.746Z,1023.78
2017-02-17T08:50:03.825Z,1023.7
2017-02-17T08:55:03.542Z,1023.8
2017-02-17T09:00:03.223Z,1023.76
2017-02-17T09:05:03.097Z,1023.8
2017-02-17T09:10:03.100Z,1023.8
2017-02-17T09:15:02.775Z,1023.84
2017-02-17T09:20:03.582Z,1023.83
2017-02-17T09:25:03.339Z,1024.04
2017-02-17T09:30:03.416Z,1024.06
2017-02-17T09:35:03.377Z,1024.13
2017-02-17T09:40:03.151Z,1024.08
2017-02-17T09:45:02.862Z,1024.12
2017-02-17T09:50:02.725Z,1024.1
2017-02-17T09:55:03.589Z,1023.98
2017-02-17T10:00:03.417Z,1023.96
2017-02-17T10:05:03.545Z,1024.04
2017-02-17T10:10:03.634Z,1024.08
2017-02-17T10:15:03.778Z,1024.2
2017-02-17T10:20:02.783Z,1024.25
2017-02-17T10:25:02.774Z,1024.28
2017-02-17T10:30:02.883Z,1024.26
2017-02-17T10:35:03.031Z,1024.1
2017-02-17T10:40:03.110Z,1024.23
2017-02-17T10:45:03.119Z,1024.22
2017-02-17T10:50:03.116Z,1024.31
2017-02-17T10:55:03.079Z,1024.33
2017-02-17T11:00:03.093Z,1024.32
2017-02-17T11:05:03.090Z,1024.34
2017-02-17T11:10:03.085Z,1024.29
2017-02-17T11:15:03.142Z,1024.38
2017-02-17T11:20:03.129Z,1024.34
2017-02-17T11:25:03.122Z,1024.37
2017-02-17T11:30:03.122Z,1024.35
2017-02-17T11:35:03.121Z,1024.37
2017-02-17T11:40:03.158Z,1024.34
2017-02-17T11:45:03.135Z,1024.22
2017-02-17T11:50:03.153Z,1024.26
2017-02-17T11:55:03.115Z,1024.31
2017-02-17T12:00:03.077Z,1024.21
2017-02-17T12:05:03.095Z,1024.2
2017-02-17T12:10:03.169Z,1024.23
2017-02-17T12:15:03.137Z,1024.22
2017-02-17T12:20:03.093Z,1024.21
2017-02-17T12:25:03.074Z,1024.19
2017-02-17T12:30:03.072Z,1024.17
2017-02-17T12:35:03.124Z,1024.16
2017-02-17T12:40:03.204Z,1024.23
2017-02-17T12:45:03.236Z,1024.29
2017-02-17T12:50:03.272Z,1024.35
2017-02-17T12:55:03.288Z,1024.34
2017-02-17T13:00:03.275Z,1024.3
2017-02-17T13:05:03.320Z,1024.26
2017-02-17T13:10:03.383Z,1024.3
2017-02-17T13:15:03.388Z,1024.37
2017-02-17T13:20:03.363Z,1024.32
2017-02-17T13:25:03.404Z,1024.41
2017-02-17T13:30:03.402Z,1024.43
2017-02-17T13:35:03.426Z,1024.54
2017-02-17T13:40:03.516Z,1024.5
2017-02-17T13:45:03.540Z,1024.54
2017-02-17T13:50:03.540Z,1024.48
2017-02-17T13:55:03.584Z,1024.58
2017-02-17T14:00:03.646Z,1024.58
2017-02-17T14:05:03.696Z,1024.63
2017-02-17T14:10:02.798Z,1024.63
2017-02-17T14:15:02.906Z,1024.71
2017-02-17T14:20:02.944Z,1024.73
2017-02-17T14:25:02.938Z,1024.78
2017-02-17T14:30:02.988Z,1024.82
2017-02-17T14:35:03.035Z,1024.71
2017-02-17T14:40:03.143Z,1024.77
2017-02-17T14:45:03.163Z,1024.89
2017-02-17T14:50:03.160Z,1024.93
2017-02-17T14:55:03.215Z,1024.97
2017-02-17T15:00:03.231Z,1025.05
2017-02-17T15:05:03.246Z,1024.98
2017-02-17T15:10:03.343Z,1025.05
2017-02-17T15:15:03.889Z,1025.08
2017-02-17T15:20:02.939Z,1025.09
2017-02-17T15:25:02.978Z,1025.14
2017-02-17T15:30:03.028Z,1025.12
2017-02-17T15:35:02.991Z,1025.11
2017-02-17T15:40:03.017Z,1025.19
2017-02-17T15:45:03.016Z,1025.18
2017-02-17T15:50:03.047Z,1025.18
2017-02-17T15:55:03.153Z,1025.18
2017-02-17T16:00:03.186Z,1025.26
2017-02-17T16:05:03.230Z,1025.23
2017-02-17T16:10:03.331Z,1025.33
2017-02-17T16:15:03.305Z,1025.33
2017-02-17T16:20:03.373Z,1025.4
2017-02-17T16:25:03.412Z,1025.4
2017-02-17T16:30:03.412Z,1025.46
2017-02-17T16:35:03.406Z,1025.48
2017-02-17T16:40:03.457Z,1025.5
2017-02-17T16:45:03.456Z,1025.5
2017-02-17T16:50:03.547Z,1025.54
2017-02-17T16:55:03.547Z,1025.61
2017-02-17T17:00:03.781Z,1025.69
2017-02-17T17:05:02.782Z,1025.76
2017-02-17T17:10:02.861Z,1025.83
2017-02-17T17:15:02.854Z,1025.85
2017-02-17T17:20:02.888Z,1025.88
2017-02-17T17:25:02.971Z,1025.96
2017-02-17T17:30:03.015Z,1025.96
2017-02-17T17:35:03.082Z,1025.96
2017-02-17T17:40:03.114Z,1025.98
2017-02-17T17:45:03.112Z,1026.12
2017-02-17T17:50:03.159Z,1026.18
2017-02-17T17:55:03.111Z,1026.2
2017-02-17T18:00:03.131Z,1026.31
2017-02-17T18:05:03.275Z,1026.27
2017-02-17T18:10:03.318Z,1026.35
2017-02-17T18:15:03.236Z,1026.43
2017-02-17T18:20:03.154Z,1026.49
2017-02-17T18:25:03.172Z,1026.58
2017-02-17T18:30:03.194Z,1026.57
2017-02-17T18:35:03.219Z,1026.66
2017-02-17T18:40:03.264Z,1026.66
2017-02-17T18:45:03.261Z,1026.62
2017-02-17T18:50:03.279Z,1026.74
2017-02-17T18:55:03.260Z,1026.75
2017-02-17T19:00:03.347Z,1026.77
2017-02-17T19:05:03.334Z,1026.76
2017-02-17T19:10:03.412Z,1026.81
2017-02-17T19:15:03.431Z,1026.82
2017-02-17T19:20:03.468Z,1026.87
2017-02-17T19:25:03.495Z,1026.87
2017-02-17T19:30:03.567Z,1026.89
2017-02-17T19:35:03.630Z,1026.95
2017-02-17T19:40:02.726Z,1026.92
2017-02-17T19:45:02.761Z,1026.98
2017-02-17T19:50:02.728Z,1026.94
2017-02-17T19:55:02.726Z,1026.9
2017-02-17T20:00:02.970Z,1026.94
2017-02-17T20:05:03.030Z,1027.03
2017-02-17T20:10:03.076Z,1026.97
2017-02-17T20:15:03.119Z,1027.03
2017-02-17T20:20:03.133Z,1026.99
2017-02-17T20:25:03.098Z,1027.03
2017-02-17T20:30:03.141Z,1026.99
2017-02-17T20:35:03.124Z,1027.03
2017-02-17T20:40:03.187Z,1027.09
2017-02-17T20:45:03.195Z,1027.08
2017-02-17T20:50:03.193Z,1027.21
2017-02-17T20:55:03.207Z,1027.15
2017-02-17T21:00:03.194Z,1027.11
2017-02-17T21:05:03.194Z,1027.1
2017-02-17T21:10:03.248Z,1027.21
2017-02-17T21:15:03.276Z,1027.23
2017-02-17T21:20:03.341Z,1027.2
2017-02-17T21:25:03.354Z,1027.25
2017-02-17T21:30:03.393Z,1027.34
2017-02-17T21:35:03.435Z,1027.3
2017-02-17T21:40:03.511Z,1027.29
2017-02-17T21:45:03.578Z,1027.3
2017-02-17T21:50:03.604Z,1027.38
2017-02-17T21:55:03.570Z,1027.38
2017-02-17T22:00:03.807Z,1027.36
2017-02-17T22:05:02.879Z,1027.36
2017-02-17T22:10:02.985Z,1027.36
2017-02-17T22:15:02.993Z,1027.36
2017-02-17T22:20:03.062Z,1027.33
2017-02-17T22:25:03.131Z,1027.32
2017-02-17T22:30:03.130Z,1027.26
2017-02-17T22:35:03.161Z,1027.3
2017-02-17T22:40:03.210Z,1027.35
2017-02-17T22:45:03.150Z,1027.37
2017-02-17T22:50:03.155Z,1027.4
2017-02-17T22:55:03.168Z,1027.33
2017-02-17T23:00:03.154Z,1027.36
2017-02-17T23:05:03.179Z,1027.36
2017-02-17T23:10:03.211Z,1027.38
2017-02-17T23:15:03.238Z,1027.38
2017-02-17T23:20:03.265Z,1027.31
2017-02-17T23:25:03.252Z,1027.38
2017-02-17T23:30:03.302Z,1027.32
2017-02-17T23:35:03.307Z,1027.27
2017-02-17T23:40:03.406Z,1027.31
2017-02-17T23:45:03.393Z,1027.35
2017-02-17T23:50:03.407Z,1027.26
2017-02-17T23:55:03.470Z,1027.26
